Time;durP1;ratioP1;P1;durP2;ratioP2;P2;SDS_P1;SDS_P2;PMS_P1;PMS_P2;Temp;Humidity;BMP_temperature;BMP_pressure;BME280_temperature;BME280_humidity;BME280_pressure;Samples;Min_cycle;Max_cycle;Signal;HPM_P1;HPM_P2
2021/04/08 00:01:18;;;;;;;1.60;1.40;;;2.80;98.20;;;;;;4995409;28;20941;-78
2021/04/08 00:03:45;;;;;;;1.60;1.40;;;2.80;98.20;;;;;;5014604;28;20456;-76
2021/04/08 00:06:12;;;;;;;1.60;1.50;;;2.90;98.20;;;;;;5009123;28;21367;-76
2021/04/08 00:08:38;;;;;;;1.60;1.37;;;2.80;98.20;;;;;;5006340;28;20484;-77
2021/04/08 00:11:05;;;;;;;1.60;1.50;;;2.80;98.20;;;;;;5005020;28;20470;-76
2021/04/08 00:13:32;;;;;;;1.60;1.40;;;2.80;98.20;;;;;;5022786;28;20471;-78
2021/04/08 00:15:59;;;;;;;1.60;1.40;;;2.80;98.20;;;;;;5006461;28;20488;-76
2021/04/08 00:18:26;;;;;;;1.60;1.50;;;2.80;98.20;;;;;;5007403;28;20551;-76
2021/04/08 00:20:52;;;;;;;1.60;1.50;;;2.80;98.20;;;;;;5000492;28;20466;-76
2021/04/08 00:23:18;;;;;;;1.60;1.40;;;2.80;98.20;;;;;;5015078;28;20456;-77
2021/04/08 00:25:45;;;;;;;1.60;1.40;;;2.80;98.20;;;;;;5012845;28;20467;-80
2021/04/08 00:28:11;;;;;;;1.67;1.57;;;2.70;98.20;;;;;;4983339;28;20481;-76
2021/04/08 00:30:43;;;;;;;1.60;1.50;;;2.70;98.20;;;;;;5015740;28;20886;-77
2021/04/08 00:33:10;;;;;;;1.60;1.40;;;2.70;98.20;;;;;;5010765;28;20510;-77
2021/04/08 00:35:37;;;;;;;1.60;1.50;;;2.70;98.20;;;;;;5019391;28;20491;-76
2021/04/08 00:38:03;;;;;;;1.70;1.60;;;2.60;98.20;;;;;;4994105;28;20498;-77
2021/04/08 00:40:30;;;;;;;1.60;1.50;;;2.60;98.20;;;;;;5014495;28;20488;-75
2021/04/08 00:42:57;;;;;;;1.70;1.60;;;2.60;98.20;;;;;;4993102;28;20485;-78
2021/04/08 00:45:23;;;;;;;1.60;1.40;;;2.60;98.20;;;;;;5007795;28;20491;-76
2021/04/08 00:47:50;;;;;;;1.60;1.40;;;2.60;98.20;;;;;;5003620;28;20507;-77
2021/04/08 00:50:18;;;;;;;1.60;1.50;;;2.60;98.20;;;;;;5015696;28;20902;-78
2021/04/08 00:52:50;;;;;;;1.60;1.50;;;2.50;98.20;;;;;;4989535;28;20567;-77
2021/04/08 00:55:18;;;;;;;1.60;1.50;;;2.60;98.20;;;;;;5002431;28;20472;-78
2021/04/08 00:57:45;;;;;;;1.60;1.50;;;2.50;98.20;;;;;;5007725;28;20889;-78
2021/04/08 01:00:12;;;;;;;1.70;1.60;;;2.50;98.20;;;;;;5015010;28;20484;-75
2021/04/08 01:02:39;;;;;;;1.60;1.50;;;2.50;98.20;;;;;;5005928;28;20554;-77
2021/04/08 01:05:06;;;;;;;1.60;1.50;;;2.40;98.20;;;;;;5025393;22;20498;-76
2021/04/08 01:07:36;;;;;;;1.60;1.50;;;2.50;98.20;;;;;;4994587;28;20489;-80
2021/04/08 01:10:03;;;;;;;1.60;1.40;;;2.40;98.20;;;;;;4998357;28;20717;-75
2021/04/08 01:12:29;;;;;;;1.60;1.40;;;2.40;98.20;;;;;;4980369;28;20517;-76
2021/04/08 01:14:56;;;;;;;1.60;1.50;;;2.40;98.20;;;;;;4996440;28;20480;-75
2021/04/08 01:17:27;;;;;;;1.70;1.60;;;2.40;98.20;;;;;;4975274;28;20485;-79
2021/04/08 01:20:17;;;;;;;1.60;1.40;;;2.30;98.20;;;;;;4988576;28;20485;-77
2021/04/08 01:23:04;;;;;;;1.60;1.50;;;2.30;98.20;;;;;;4992538;28;20550;-77
2021/04/08 01:26:10;;;;;;;1.60;1.40;;;2.30;98.20;;;;;;4969812;28;20491;-76
2021/04/08 01:28:40;;;;;;;1.60;1.50;;;2.20;98.20;;;;;;4966774;23;21005;-75
2021/04/08 01:31:10;;;;;;;1.60;1.40;;;2.20;98.20;;;;;;4943836;28;21014;-77
2021/04/08 01:33:41;;;;;;;1.60;1.50;;;2.20;98.20;;;;;;4972856;28;20502;-78
2021/04/08 01:36:09;;;;;;;1.60;1.50;;;2.10;98.20;;;;;;4955879;28;20789;-78
2021/04/08 01:38:41;;;;;;;1.60;1.50;;;2.10;98.20;;;;;;4967236;28;20839;-76
2021/04/08 01:41:08;;;;;;;1.60;1.50;;;2.10;98.20;;;;;;4953930;28;20485;-76
2021/04/08 01:43:37;;;;;;;1.60;1.50;;;2.10;98.20;;;;;;4984604;28;20471;-76
2021/04/08 01:46:05;;;;;;;1.60;1.50;;;2.10;98.20;;;;;;4944583;28;20467;-75
2021/04/08 01:48:33;;;;;;;1.70;1.60;;;2.20;98.20;;;;;;4968246;28;20513;-75
2021/04/08 01:51:02;;;;;;;1.60;1.50;;;2.20;98.20;;;;;;4960291;28;20465;-77
2021/04/08 01:53:29;;;;;;;1.80;1.70;;;2.20;98.20;;;;;;4983563;28;20471;-76
2021/04/08 01:55:59;;;;;;;1.60;1.43;;;2.20;98.20;;;;;;4939897;28;20852;-76
2021/04/08 01:58:26;;;;;;;1.60;1.50;;;2.20;98.20;;;;;;4964495;28;20482;-76
2021/04/08 02:00:54;;;;;;;1.60;1.50;;;2.20;98.20;;;;;;4945149;28;20477;-76
2021/04/08 02:03:22;;;;;;;1.60;1.47;;;2.20;98.20;;;;;;4972382;28;20476;-76
2021/04/08 02:05:50;;;;;;;1.60;1.50;;;2.20;98.20;;;;;;4958708;28;20582;-76
2021/04/08 02:08:18;;;;;;;1.60;1.50;;;2.20;98.20;;;;;;4973363;28;21045;-78
2021/04/08 02:10:45;;;;;;;1.60;1.50;;;2.20;98.20;;;;;;4964132;28;20462;-76
2021/04/08 02:13:15;;;;;;;1.60;1.50;;;2.20;98.20;;;;;;4950138;28;20489;-76
2021/04/08 02:15:44;;;;;;;1.60;1.40;;;2.20;98.20;;;;;;4975009;28;20500;-76
2021/04/08 02:18:15;;;;;;;1.60;1.50;;;2.20;98.20;;;;;;4959994;28;20475;-77
2021/04/08 02:20:43;;;;;;;1.60;1.40;;;2.20;98.20;;;;;;4955130;28;20486;-75
2021/04/08 02:23:11;;;;;;;1.60;1.50;;;2.20;98.20;;;;;;4962950;28;20497;-76
2021/04/08 02:25:38;;;;;;;1.60;1.50;;;2.20;98.20;;;;;;4961043;28;20510;-76
2021/04/08 02:28:06;;;;;;;1.63;1.53;;;2.20;98.20;;;;;;4957032;28;20722;-75
2021/04/08 02:30:45;;;;;;;1.60;1.40;;;2.20;98.20;;;;;;4953769;28;20494;-76
2021/04/08 02:33:12;;;;;;;1.70;1.60;;;2.20;98.20;;;;;;4950817;28;20470;-78
2021/04/08 02:35:38;;;;;;;1.60;1.40;;;2.20;98.20;;;;;;4953531;28;20490;-75
2021/04/08 02:38:05;;;;;;;1.60;1.50;;;2.20;98.20;;;;;;4957139;28;20493;-78
2021/04/08 02:40:32;;;;;;;1.60;1.40;;;2.20;98.20;;;;;;4943391;28;20533;-76
2021/04/08 02:42:58;;;;;;;1.60;1.40;;;2.20;98.20;;;;;;4953123;28;20478;-76
2021/04/08 02:45:25;;;;;;;1.60;1.50;;;2.20;98.20;;;;;;4947557;29;20700;-77
2021/04/08 02:47:51;;;;;;;1.60;1.40;;;2.20;98.20;;;;;;4951474;28;20485;-77
2021/04/08 02:50:17;;;;;;;1.60;1.50;;;2.20;98.20;;;;;;4946318;28;20483;-76
2021/04/08 02:52:53;;;;;;;1.60;1.50;;;2.20;98.20;;;;;;4958644;28;20486;-76
2021/04/08 02:55:24;;;;;;;1.70;1.60;;;2.20;98.20;;;;;;4955296;28;20841;-76
2021/04/08 02:57:55;;;;;;;1.60;1.50;;;2.20;98.20;;;;;;4956769;28;20533;-77
2021/04/08 03:00:25;;;;;;;1.60;1.50;;;2.20;98.20;;;;;;4942769;28;21021;-74
2021/04/08 03:02:54;;;;;;;1.60;1.50;;;2.20;98.20;;;;;;4957841;28;20546;-76
2021/04/08 03:05:21;;;;;;;1.60;1.50;;;2.20;98.20;;;;;;4953347;29;20834;-77
2021/04/08 03:07:49;;;;;;;1.60;1.50;;;2.20;98.20;;;;;;4943970;28;20513;-76
2021/04/08 03:10:16;;;;;;;1.60;1.50;;;2.20;98.20;;;;;;4947327;29;20507;-76
2021/04/08 03:12:46;;;;;;;1.60;1.50;;;2.20;98.20;;;;;;4957667;28;20496;-77
2021/04/08 03:15:15;;;;;;;1.63;1.53;;;2.30;98.20;;;;;;4939547;28;20475;-76
2021/04/08 03:17:45;;;;;;;1.70;1.60;;;2.30;98.20;;;;;;4949730;28;20500;-78
2021/04/08 03:20:14;;;;;;;1.60;1.50;;;2.30;98.20;;;;;;4934763;28;20484;-77
2021/04/08 03:22:41;;;;;;;1.60;1.40;;;2.30;98.20;;;;;;4968579;28;20911;-75
2021/04/08 03:25:09;;;;;;;1.60;1.50;;;2.30;98.20;;;;;;4951221;28;20830;-75
2021/04/08 03:27:36;;;;;;;1.70;1.60;;;2.30;98.20;;;;;;4953473;28;20508;-75
2021/04/08 03:30:04;;;;;;;1.60;1.50;;;2.30;98.20;;;;;;4942630;28;20488;-77
2021/04/08 03:32:31;;;;;;;1.80;1.70;;;2.30;98.20;;;;;;4950893;28;20545;-77
2021/04/08 03:34:58;;;;;;;1.70;1.60;;;2.30;98.20;;;;;;4948806;28;20494;-76
2021/04/08 03:37:25;;;;;;;1.60;1.50;;;2.30;98.20;;;;;;4953651;28;21105;-75
2021/04/08 03:39:52;;;;;;;1.60;1.43;;;2.30;98.20;;;;;;4956731;28;20483;-78
2021/04/08 03:42:19;;;;;;;1.60;1.50;;;2.30;98.20;;;;;;4951642;28;20492;-75
2021/04/08 03:44:45;;;;;;;1.60;1.50;;;2.30;98.20;;;;;;4943528;28;20719;-77
2021/04/08 03:47:13;;;;;;;1.60;1.50;;;2.30;98.20;;;;;;4953780;28;20481;-76
2021/04/08 03:49:42;;;;;;;1.60;1.40;;;2.30;98.20;;;;;;4956453;28;20641;-75
2021/04/08 03:52:10;;;;;;;1.60;1.50;;;2.30;98.20;;;;;;4944365;28;20487;-77
2021/04/08 03:54:37;;;;;;;1.60;1.50;;;2.30;98.20;;;;;;4957337;28;20471;-76
2021/04/08 03:57:07;;;;;;;1.60;1.50;;;2.30;98.20;;;;;;4953524;28;20541;-77
2021/04/08 03:59:34;;;;;;;1.70;1.60;;;2.30;98.20;;;;;;4957650;28;20970;-76
2021/04/08 04:02:01;;;;;;;1.70;1.60;;;2.30;98.20;;;;;;4945136;28;20529;-75
2021/04/08 04:04:28;;;;;;;1.60;1.50;;;2.30;98.20;;;;;;4950070;28;20463;-77
2021/04/08 04:06:56;;;;;;;1.60;1.50;;;2.40;98.20;;;;;;4937739;28;21229;-79
2021/04/08 04:09:22;;;;;;;1.60;1.40;;;2.40;98.20;;;;;;4940273;29;20701;-76
2021/04/08 04:11:50;;;;;;;1.60;1.50;;;2.40;98.20;;;;;;4944374;28;20572;-76
2021/04/08 04:14:21;;;;;;;1.60;1.40;;;2.40;98.20;;;;;;4952123;28;20479;-76
2021/04/08 04:16:49;;;;;;;1.60;1.50;;;2.40;98.20;;;;;;4945353;28;20486;-77
2021/04/08 04:19:15;;;;;;;1.60;1.50;;;2.40;98.20;;;;;;4957291;28;20497;-75
2021/04/08 04:21:41;;;;;;;1.60;1.50;;;2.40;98.20;;;;;;4950524;28;20581;-75
2021/04/08 04:24:09;;;;;;;1.60;1.40;;;2.40;98.20;;;;;;4956676;28;20463;-76
2021/04/08 04:26:36;;;;;;;1.60;1.50;;;2.40;98.20;;;;;;4945306;28;21022;-77
2021/04/08 04:29:02;;;;;;;1.80;1.70;;;2.40;98.20;;;;;;4960307;28;20913;-75
2021/04/08 04:31:31;;;;;;;1.60;1.40;;;2.40;98.20;;;;;;4941774;28;20489;-76
2021/04/08 04:33:58;;;;;;;1.60;1.50;;;2.40;98.20;;;;;;4957340;28;20467;-78
2021/04/08 04:36:24;;;;;;;3.03;2.83;;;2.40;98.20;;;;;;4948057;28;20565;-76
2021/04/08 04:38:50;;;;;;;1.60;1.50;;;2.40;98.20;;;;;;4956357;28;20602;-76
2021/04/08 04:41:18;;;;;;;1.60;1.43;;;2.40;98.20;;;;;;4941614;28;21023;-76
2021/04/08 04:43:44;;;;;;;1.60;1.50;;;2.40;98.20;;;;;;4965043;28;20489;-76
2021/04/08 04:46:11;;;;;;;1.60;1.40;;;2.40;98.20;;;;;;4942045;28;20474;-76
2021/04/08 04:48:37;;;;;;;1.60;1.43;;;2.40;98.20;;;;;;4964527;28;20473;-75
2021/04/08 04:51:05;;;;;;;1.60;1.50;;;2.40;98.20;;;;;;4932444;28;20476;-75
2021/04/08 04:53:31;;;;;;;1.60;1.40;;;2.40;98.20;;;;;;4956779;28;20462;-76
2021/04/08 04:55:58;;;;;;;1.60;1.50;;;2.40;98.20;;;;;;4942721;28;20514;-76
2021/04/08 04:58:25;;;;;;;1.60;1.47;;;2.40;98.20;;;;;;4965281;28;20916;-77
2021/04/08 05:00:52;;;;;;;1.60;1.50;;;2.40;98.20;;;;;;4943768;28;20947;-76
2021/04/08 05:03:18;;;;;;;1.70;1.60;;;2.40;98.20;;;;;;4970064;28;20589;-78
2021/04/08 05:05:44;;;;;;;1.60;1.50;;;2.40;98.20;;;;;;4960093;28;20961;-76
2021/04/08 05:08:12;;;;;;;1.60;1.50;;;2.40;98.20;;;;;;4960838;28;20492;-76
2021/04/08 05:10:38;;;;;;;1.60;1.40;;;2.40;98.20;;;;;;4949293;28;20505;-75
2021/04/08 05:13:05;;;;;;;1.60;1.40;;;2.40;98.20;;;;;;4955574;28;20492;-76
2021/04/08 05:15:32;;;;;;;1.60;1.40;;;2.40;98.20;;;;;;4942631;29;21029;-76
2021/04/08 05:17:59;;;;;;;1.60;1.43;;;2.50;98.20;;;;;;4975432;28;20989;-76
2021/04/08 05:20:25;;;;;;;1.60;1.40;;;2.50;98.20;;;;;;4963005;28;20478;-74
2021/04/08 05:22:54;;;;;;;1.60;1.40;;;2.50;98.20;;;;;;4960013;28;20498;-74
2021/04/08 05:25:24;;;;;;;1.60;1.40;;;2.50;98.20;;;;;;4950092;28;20478;-75
2021/04/08 05:27:50;;;;;;;1.60;1.50;;;2.60;98.20;;;;;;4946988;28;21243;-75
2021/04/08 05:30:18;;;;;;;1.60;1.47;;;2.60;98.20;;;;;;4956250;28;20993;-76
2021/04/08 05:32:45;;;;;;;1.60;1.40;;;2.60;98.20;;;;;;4956218;28;20863;-75
2021/04/08 05:35:12;;;;;;;1.60;1.50;;;2.60;98.20;;;;;;4944077;29;20745;-77
2021/04/08 05:37:39;;;;;;;1.60;1.40;;;2.60;98.20;;;;;;4956631;28;20513;-74
2021/04/08 05:40:06;;;;;;;1.60;1.40;;;2.60;98.20;;;;;;4953768;28;20505;-76
2021/04/08 05:42:33;;;;;;;1.60;1.50;;;2.60;98.20;;;;;;4953022;28;20494;-75
2021/04/08 05:44:59;;;;;;;1.60;1.40;;;2.60;98.20;;;;;;4951377;28;20465;-75
2021/04/08 05:47:25;;;;;;;1.60;1.40;;;2.70;98.20;;;;;;4945636;28;20537;-75
2021/04/08 05:49:53;;;;;;;1.60;1.40;;;2.70;98.20;;;;;;4949014;28;20500;-75
2021/04/08 05:52:19;;;;;;;1.60;1.50;;;2.70;98.20;;;;;;4949378;28;20528;-77
2021/04/08 05:54:45;;;;;;;1.60;1.40;;;2.70;98.20;;;;;;4950252;28;20460;-75
2021/04/08 05:57:12;;;;;;;1.60;1.40;;;2.80;98.20;;;;;;4945516;28;20502;-75
2021/04/08 05:59:38;;;;;;;1.60;1.40;;;2.80;98.20;;;;;;4955855;28;20494;-74
2021/04/08 06:02:05;;;;;;;1.60;1.40;;;2.90;98.20;;;;;;4974536;23;20478;-75
2021/04/08 06:04:31;;;;;;;1.60;1.40;;;2.90;98.20;;;;;;4976091;28;20485;-75
2021/04/08 06:07:08;;;;;;;1.60;1.40;;;3.00;98.20;;;;;;4967486;28;20670;-73
2021/04/08 06:09:35;;;;;;;1.60;1.40;;;3.00;98.20;;;;;;4973895;28;20588;-76
2021/04/08 06:12:01;;;;;;;1.60;1.40;;;3.00;98.20;;;;;;4955083;28;20478;-75
2021/04/08 06:14:28;;;;;;;1.60;1.40;;;3.10;98.20;;;;;;4957729;28;20751;-74
2021/04/08 06:16:55;;;;;;;1.60;1.40;;;3.10;98.20;;;;;;4950937;28;20482;-76
2021/04/08 06:19:21;;;;;;;1.60;1.40;;;3.10;98.20;;;;;;4956571;28;20847;-74
2021/04/08 06:21:48;;;;;;;1.60;1.40;;;3.20;98.20;;;;;;4959818;28;20921;-74
2021/04/08 06:24:15;;;;;;;1.60;1.40;;;3.30;98.20;;;;;;4959070;28;20463;-76
2021/04/08 06:26:42;;;;;;;1.60;1.40;;;3.30;98.20;;;;;;4936136;28;20606;-74
2021/04/08 06:29:08;;;;;;;1.60;1.40;;;3.40;98.20;;;;;;4942338;28;21000;-74
2021/04/08 06:31:35;;;;;;;1.60;1.40;;;3.40;98.20;;;;;;4960853;28;20489;-73
2021/04/08 06:34:01;;;;;;;1.60;1.40;;;3.50;98.20;;;;;;4972778;28;20658;-73
2021/04/08 06:36:29;;;;;;;1.60;1.30;;;3.50;98.20;;;;;;4948604;28;20482;-74
2021/04/08 06:38:55;;;;;;;1.60;1.40;;;3.60;98.20;;;;;;4962475;28;20506;-75
2021/04/08 06:41:22;;;;;;;1.60;1.40;;;3.70;98.20;;;;;;4933694;28;20521;-74
2021/04/08 06:43:51;;;;;;;1.60;1.40;;;3.70;98.20;;;;;;4954268;28;20897;-74
2021/04/08 06:46:21;;;;;;;1.60;1.40;;;3.80;98.20;;;;;;4949103;28;20482;-75
2021/04/08 06:48:54;;;;;;;1.60;1.40;;;3.90;98.20;;;;;;4964550;28;20867;-76
2021/04/08 06:51:22;;;;;;;1.60;1.30;;;4.00;98.20;;;;;;4959271;28;21064;-75
2021/04/08 06:53:49;;;;;;;1.57;1.33;;;4.10;98.20;;;;;;4960516;28;20477;-75
2021/04/08 06:56:16;;;;;;;1.60;1.30;;;4.20;98.20;;;;;;4961264;28;20548;-76
2021/04/08 06:58:44;;;;;;;1.60;1.30;;;4.30;98.20;;;;;;4972718;28;20477;-75
2021/04/08 07:01:11;;;;;;;1.60;1.30;;;4.40;98.20;;;;;;4956391;28;20878;-75
2021/04/08 07:03:40;;;;;;;1.60;1.30;;;4.50;97.70;;;;;;4957841;28;20585;-75
2021/04/08 07:06:06;;;;;;;2.53;2.33;;;4.50;97.50;;;;;;4944520;28;20464;-75
2021/04/08 07:08:33;;;;;;;1.60;1.30;;;4.60;96.80;;;;;;4954515;28;20486;-76
2021/04/08 07:11:01;;;;;;;1.60;1.40;;;4.70;96.60;;;;;;4943152;28;20462;-74
2021/04/08 07:13:28;;;;;;;1.60;1.40;;;4.80;96.40;;;;;;4949889;28;20979;-75
2021/04/08 07:15:56;;;;;;;1.60;1.50;;;4.90;96.80;;;;;;4953667;28;20560;-74
2021/04/08 07:18:24;;;;;;;1.50;1.30;;;5.00;95.00;;;;;;4965275;28;20469;-75
2021/04/08 07:20:51;;;;;;;1.50;1.30;;;5.00;95.00;;;;;;4959566;28;20466;-75
2021/04/08 07:23:17;;;;;;;1.60;1.40;;;5.10;95.00;;;;;;4964348;28;20466;-75
2021/04/08 07:26:02;;;;;;;1.57;1.30;;;5.20;95.00;;;;;;4971133;28;20459;-76
2021/04/08 07:28:29;;;;;;;1.60;1.40;;;5.20;94.10;;;;;;4923021;28;20498;-74
2021/04/08 07:30:57;;;;;;;1.57;1.30;;;5.30;93.90;;;;;;4940177;28;20960;-75
2021/04/08 07:33:24;;;;;;;1.57;1.30;;;5.40;93.70;;;;;;4964188;28;20471;-76
2021/04/08 07:35:50;;;;;;;1.53;1.30;;;5.40;93.50;;;;;;4935689;28;20607;-73
2021/04/08 07:38:20;;;;;;;1.53;1.30;;;5.50;93.10;;;;;;4962564;28;20470;-75
2021/04/08 07:40:58;;;;;;;1.50;1.30;;;5.60;94.10;;;;;;4952813;28;20459;-74
2021/04/08 07:43:25;;;;;;;1.57;1.20;;;5.70;92.70;;;;;;4957042;28;20915;-75
2021/04/08 07:45:52;;;;;;;1.53;1.30;;;5.80;91.60;;;;;;4932733;28;20563;-75
2021/04/08 07:48:33;;;;;;;1.53;1.20;;;5.80;91.40;;;;;;4953202;28;20888;-75
2021/04/08 07:50:59;;;;;;;2.23;2.03;;;5.90;91.40;;;;;;4941574;28;20473;-77
2021/04/08 07:53:26;;;;;;;1.60;1.30;;;6.00;91.30;;;;;;4960815;28;20846;-76
2021/04/08 07:55:55;;;;;;;1.57;1.23;;;6.00;90.70;;;;;;4944678;28;20481;-75
2021/04/08 07:58:21;;;;;;;1.57;1.20;;;6.10;90.80;;;;;;4970146;28;20469;-75
2021/04/08 08:00:50;;;;;;;1.60;1.30;;;6.10;88.80;;;;;;4950172;28;20466;-75
2021/04/08 08:03:26;;;;;;;1.60;1.27;;;6.20;89.70;;;;;;4962714;28;20514;-75
2021/04/08 08:05:58;;;;;;;1.53;1.20;;;6.30;90.80;;;;;;4955863;28;20997;-74
2021/04/08 08:08:25;;;;;;;1.50;1.20;;;6.50;91.20;;;;;;4980628;28;20457;-76
2021/04/08 08:10:58;;;;;;;2.67;2.47;;;6.60;89.90;;;;;;4958575;28;20468;-76
2021/04/08 08:13:26;;;;;;;1.53;1.20;;;6.80;88.80;;;;;;4956550;28;20882;-76
2021/04/08 08:15:55;;;;;;;1.57;1.10;;;6.80;88.00;;;;;;4957193;28;20477;-75
2021/04/08 08:18:31;;;;;;;1.60;1.30;;;6.90;88.50;;;;;;4981231;28;21040;-76
2021/04/08 08:21:03;;;;;;;1.53;1.10;;;7.00;88.40;;;;;;4998612;23;20514;-75
2021/04/08 08:23:41;;;;;;;1.57;1.20;;;7.20;87.10;;;;;;5026408;28;20460;-74
2021/04/08 08:26:28;;;;;;;1.60;1.30;;;7.30;86.70;;;;;;5007089;28;20480;-77
2021/04/08 08:28:57;;;;;;;1.60;1.30;;;7.30;86.50;;;;;;4998228;28;21106;-75
2021/04/08 08:31:45;;;;;;;1.50;1.20;;;7.50;86.20;;;;;;4982538;28;20492;-75
2021/04/08 08:34:14;;;;;;;1.50;1.20;;;7.50;86.10;;;;;;5012441;28;20809;-76
2021/04/08 08:36:42;;;;;;;1.60;1.20;;;7.60;86.30;;;;;;4990304;28;20477;-75
2021/04/08 08:39:12;;;;;;;1.53;1.20;;;7.70;85.80;;;;;;4986386;28;20497;-76
2021/04/08 08:41:38;;;;;;;1.50;1.20;;;7.80;83.80;;;;;;4992082;28;20484;-77
2021/04/08 08:44:07;;;;;;;1.53;1.20;;;7.80;83.20;;;;;;5006668;28;20537;-75
2021/04/08 08:46:41;;;;;;;1.50;1.20;;;7.90;82.70;;;;;;4993430;28;20799;-76
2021/04/08 08:49:08;;;;;;;1.53;1.17;;;7.90;81.70;;;;;;4991000;28;21092;-77
2021/04/08 08:51:36;;;;;;;1.57;1.20;;;7.90;82.00;;;;;;4998702;28;20569;-76
2021/04/08 08:54:03;;;;;;;1.50;1.20;;;8.00;81.60;;;;;;5008153;28;20476;-75
2021/04/08 08:56:31;;;;;;;1.60;1.40;;;8.10;82.10;;;;;;4990637;28;20475;-76
2021/04/08 08:58:57;;;;;;;1.60;1.30;;;8.20;81.60;;;;;;5006631;28;20549;-75
2021/04/08 09:01:24;;;;;;;1.53;1.20;;;8.30;80.30;;;;;;4994216;28;20486;-76
2021/04/08 09:03:51;;;;;;;1.60;1.20;;;8.30;79.50;;;;;;4999733;28;21077;-77
2021/04/08 09:06:20;;;;;;;1.53;1.20;;;8.40;78.80;;;;;;4997534;28;20487;-75
2021/04/08 09:08:51;;;;;;;1.50;1.10;;;8.40;78.70;;;;;;5000853;28;20514;-76
2021/04/08 09:11:22;;;;;;;1.57;1.10;;;8.50;78.30;;;;;;4985479;28;20558;-76
2021/04/08 09:13:51;;;;;;;1.60;1.20;;;8.60;79.00;;;;;;4996387;28;20487;-75
2021/04/08 09:16:17;;;;;;;1.50;1.10;;;8.80;79.10;;;;;;4994718;28;20535;-75
2021/04/08 09:18:57;;;;;;;1.53;1.20;;;8.90;77.90;;;;;;5004010;28;20582;-76
2021/04/08 09:21:24;;;;;;;1.50;1.10;;;9.10;77.80;;;;;;4989483;28;20550;-77
2021/04/08 09:24:13;;;;;;;1.50;1.10;;;9.20;76.10;;;;;;4997681;28;21024;-75
2021/04/08 09:26:41;;;;;;;1.53;1.10;;;9.30;75.60;;;;;;4989760;28;20769;-75
2021/04/08 09:29:09;;;;;;;1.50;1.03;;;9.40;73.80;;;;;;4996045;28;20479;-75
2021/04/08 09:31:36;;;;;;;2.70;2.07;;;9.50;75.20;;;;;;4982329;28;20486;-76
2021/04/08 09:34:03;;;;;;;1.60;1.20;;;9.50;74.40;;;;;;4998927;28;20488;-75
2021/04/08 09:36:53;;;;;;;1.57;1.10;;;9.50;72.70;;;;;;4992476;28;20484;-75
2021/04/08 09:39:25;;;;;;;1.60;1.20;;;9.50;72.90;;;;;;5003810;28;20480;-76
2021/04/08 09:41:55;;;;;;;1.60;1.10;;;9.40;71.50;;;;;;5002135;28;21014;-76
2021/04/08 09:44:23;;;;;;;1.60;1.20;;;9.40;72.70;;;;;;4991364;28;20477;-77
2021/04/08 09:46:53;;;;;;;1.60;1.17;;;9.50;72.80;;;;;;5004938;28;20980;-76
2021/04/08 09:49:56;;;;;;;1.60;1.10;;;9.70;73.20;;;;;;5012760;28;20533;-76
2021/04/08 09:52:23;;;;;;;1.50;1.10;;;10.00;71.90;;;;;;4990405;28;20488;-77
2021/04/08 09:54:56;;;;;;;1.50;1.10;;;10.10;67.60;;;;;;4995032;28;20538;-78
2021/04/08 09:57:37;;;;;;;1.53;1.10;;;10.10;68.30;;;;;;5019807;23;20491;-74
2021/04/08 10:00:08;;;;;;;1.50;1.00;;;10.20;67.90;;;;;;5001435;28;20496;-76
2021/04/08 10:02:35;;;;;;;1.53;1.10;;;10.20;67.30;;;;;;5017260;28;20565;-76
2021/04/08 10:05:07;;;;;;;1.50;1.10;;;10.10;66.90;;;;;;5017267;28;20468;-75
2021/04/08 10:07:51;;;;;;;1.53;1.10;;;10.10;68.20;;;;;;5002238;28;20514;-74
2021/04/08 10:10:19;;;;;;;1.50;1.10;;;10.00;67.50;;;;;;5019182;28;20497;-77
2021/04/08 10:12:45;;;;;;;1.60;1.10;;;10.00;67.30;;;;;;5023877;28;21080;-77
2021/04/08 10:15:16;;;;;;;1.53;1.10;;;10.10;68.80;;;;;;5025989;28;21077;-76
2021/04/08 10:17:43;;;;;;;1.50;1.10;;;10.10;67.10;;;;;;5011794;28;20486;-76
2021/04/08 10:20:10;;;;;;;1.57;1.10;;;10.20;66.80;;;;;;5017813;28;20484;-75
2021/04/08 10:22:46;;;;;;;1.57;1.10;;;10.20;66.80;;;;;;5021742;28;21133;-76
2021/04/08 10:25:13;;;;;;;1.53;1.00;;;10.20;66.40;;;;;;5013494;28;20522;-76
2021/04/08 10:27:40;;;;;;;1.50;1.10;;;10.10;65.80;;;;;;5016999;28;20479;-76
2021/04/08 10:30:15;;;;;;;1.50;1.10;;;10.10;66.10;;;;;;5014463;28;20523;-76
2021/04/08 10:32:42;;;;;;;1.53;1.00;;;10.20;65.80;;;;;;5014377;28;20486;-77
2021/04/08 10:35:20;;;;;;;1.50;1.00;;;10.20;65.10;;;;;;5015187;28;20474;-76
2021/04/08 10:37:46;;;;;;;1.50;1.10;;;10.30;64.50;;;;;;5024614;28;21064;-76
2021/04/08 10:40:13;;;;;;;1.50;1.00;;;10.30;65.80;;;;;;5023265;28;20490;-75
2021/04/08 10:42:40;;;;;;;1.53;1.07;;;10.20;66.10;;;;;;5003080;28;20500;-76
2021/04/08 10:45:09;;;;;;;1.50;1.00;;;10.20;65.90;;;;;;5017229;28;20475;-74
2021/04/08 10:47:37;;;;;;;1.50;1.00;;;10.20;66.00;;;;;;5015157;28;20835;-76
2021/04/08 10:50:06;;;;;;;1.50;1.10;;;10.20;66.30;;;;;;5015042;28;20518;-75
2021/04/08 10:52:34;;;;;;;1.53;1.00;;;10.20;66.60;;;;;;5010277;28;20503;-78
2021/04/08 10:55:04;;;;;;;1.50;1.00;;;10.20;65.60;;;;;;5015535;28;20551;-75
2021/04/08 10:57:32;;;;;;;1.50;1.10;;;10.10;65.70;;;;;;5019666;28;20491;-76
2021/04/08 11:00:00;;;;;;;1.50;1.00;;;10.10;66.80;;;;;;5015949;28;20479;-77
2021/04/08 11:02:29;;;;;;;1.50;1.00;;;10.10;66.70;;;;;;5010561;28;20521;-78
2021/04/08 11:04:58;;;;;;;1.50;1.10;;;10.00;64.20;;;;;;5012965;28;20472;-77
2021/04/08 11:07:26;;;;;;;1.50;1.00;;;10.00;66.40;;;;;;5010064;28;20484;-75
2021/04/08 11:09:53;;;;;;;1.50;1.10;;;10.00;65.50;;;;;;5006266;28;20658;-74
2021/04/08 11:12:25;;;;;;;1.60;1.20;;;9.90;66.80;;;;;;5016561;28;20475;-75
2021/04/08 11:14:53;;;;;;;1.50;1.10;;;9.90;66.90;;;;;;5010521;28;20969;-75
2021/04/08 11:17:25;;;;;;;1.50;1.00;;;9.90;66.00;;;;;;5007865;28;20519;-75
2021/04/08 11:19:57;;;;;;;1.50;1.00;;;9.90;67.60;;;;;;5015268;28;20853;-75
2021/04/08 11:22:26;;;;;;;1.50;1.00;;;10.00;68.20;;;;;;5014690;28;20617;-75
2021/04/08 11:24:54;;;;;;;1.50;1.00;;;10.10;67.80;;;;;;5017465;28;21021;-75
2021/04/08 11:27:29;;;;;;;1.50;1.10;;;10.10;65.70;;;;;;5014681;28;20468;-74
2021/04/08 11:29:56;;;;;;;1.50;1.13;;;10.50;66.20;;;;;;5011129;28;20482;-76
2021/04/08 11:32:24;;;;;;;1.50;1.10;;;10.80;65.60;;;;;;5002496;28;20463;-76
2021/04/08 11:34:52;;;;;;;1.50;1.00;;;11.10;65.60;;;;;;5011049;28;20886;-76
2021/04/08 11:37:20;;;;;;;1.50;1.00;;;11.40;64.80;;;;;;5006346;28;20514;-76
2021/04/08 11:39:48;;;;;;;1.50;1.07;;;11.50;64.40;;;;;;5003513;28;20491;-76
2021/04/08 11:42:23;;;;;;;1.53;1.10;;;11.60;64.80;;;;;;5011684;28;20611;-76
2021/04/08 11:44:52;;;;;;;1.50;1.00;;;11.60;65.70;;;;;;5006310;28;20507;-77
2021/04/08 11:47:19;;;;;;;1.50;1.03;;;11.60;64.40;;;;;;5013514;28;20472;-78
2021/04/08 11:49:49;;;;;;;1.50;0.93;;;11.50;64.60;;;;;;5010031;28;20480;-76
2021/04/08 11:52:17;;;;;;;1.53;1.00;;;11.50;63.70;;;;;;5011770;28;20460;-76
2021/04/08 11:55:00;;;;;;;1.50;1.00;;;11.30;64.70;;;;;;5009865;28;20507;-77
2021/04/08 11:57:26;;;;;;;1.50;1.00;;;11.20;65.40;;;;;;5004761;28;20494;-78
2021/04/08 12:00:03;;;;;;;1.50;1.00;;;11.10;64.70;;;;;;5007302;28;21086;-77
2021/04/08 12:02:31;;;;;;;1.50;1.10;;;11.10;66.20;;;;;;5006937;28;20460;-76
2021/04/08 12:05:00;;;;;;;1.50;1.10;;;11.10;65.00;;;;;;5006760;28;20465;-77
2021/04/08 12:07:27;;;;;;;1.50;1.10;;;11.20;65.50;;;;;;5007848;28;20467;-76
2021/04/08 12:09:53;;;;;;;1.50;1.03;;;11.30;65.90;;;;;;5013053;28;20487;-76
2021/04/08 12:12:32;;;;;;;1.50;1.00;;;11.60;64.50;;;;;;5007033;28;20471;-79
2021/04/08 12:15:02;;;;;;;1.50;1.00;;;11.80;63.20;;;;;;5006088;28;20496;-77
2021/04/08 12:17:29;;;;;;;1.50;1.00;;;12.10;62.50;;;;;;5017332;28;20900;-79
2021/04/08 12:20:14;;;;;;;1.53;1.00;;;12.30;62.60;;;;;;5009625;28;21090;-77
2021/04/08 12:22:40;;;;;;;1.50;1.00;;;12.70;62.00;;;;;;5014127;28;20470;-77
2021/04/08 12:25:09;;;;;;;1.50;1.00;;;12.90;61.40;;;;;;5011004;28;20526;-76
2021/04/08 12:27:36;;;;;;;1.50;1.00;;;12.90;62.10;;;;;;5021859;28;20997;-77
2021/04/08 12:30:03;;;;;;;1.50;1.00;;;12.70;61.60;;;;;;5006647;28;20491;-77
2021/04/08 12:32:30;;;;;;;1.50;1.00;;;12.50;63.10;;;;;;5009982;28;20471;-79
2021/04/08 12:34:57;;;;;;;1.50;1.00;;;12.30;62.60;;;;;;5004619;28;20539;-76
2021/04/08 12:37:25;;;;;;;1.50;1.10;;;12.00;62.90;;;;;;5005171;28;20870;-76
2021/04/08 12:39:52;;;;;;;1.53;1.00;;;11.80;62.30;;;;;;5006855;28;20717;-75
2021/04/08 12:42:18;;;;;;;1.50;1.10;;;11.70;64.30;;;;;;5005143;28;20501;-77
2021/04/08 12:44:45;;;;;;;1.50;1.10;;;11.70;64.00;;;;;;5007959;28;20841;-75
2021/04/08 12:47:12;;;;;;;1.50;1.10;;;11.60;64.20;;;;;;5004901;28;20947;-76
2021/04/08 12:49:39;;;;;;;1.50;1.10;;;11.60;64.50;;;;;;5009259;28;20491;-77
2021/04/08 12:52:06;;;;;;;1.50;1.10;;;11.50;63.70;;;;;;5005115;28;20567;-76
2021/04/08 12:54:34;;;;;;;1.50;1.00;;;11.50;64.70;;;;;;5011296;28;20925;-77
2021/04/08 12:57:01;;;;;;;1.50;1.00;;;11.60;65.30;;;;;;5020154;28;20513;-76
2021/04/08 12:59:28;;;;;;;1.50;1.00;;;11.60;63.50;;;;;;5006906;28;20598;-75
2021/04/08 13:01:55;;;;;;;1.50;1.00;;;11.60;62.90;;;;;;5006994;28;20468;-76
2021/04/08 13:04:21;;;;;;;1.50;1.00;;;11.60;63.50;;;;;;5010698;28;20482;-77